Eskdale, New Zealand
Current Conditions -  °F | °C
As of 7:00 AM on Friday 24 Oct 2014 (Local Time) from NZWN Reporting Station
Rain Showers Rain Showers  
Wind Chill: 41°   Ceiling: 2000
Heat Index: 48°   Visibility: 5mi
Dew Point: 45°   Wind: 23mph
Humidity: 87%   Direction: 180°S
Pressure: 29.88"   Gusts: NA
Location:  39.39°S, 176.83°E
Report Text: NZWN 231900Z AUTO 18020KT 8000 -SHRA SCT013/// BKN020///BKN025/// 09/07 Q1012 REDZ TEMPO 6000 RA
Loading
Personal Weather Stations






























Interactive Weather Map
Tropical Storm Tracking
New forecast layout! Learn more

10-Day Weather Forecast

Advertisements
Track Severe Weather on mobile